Time;durP1;ratioP1;P1;durP2;ratioP2;P2;SDS_P1;SDS_P2;PMS_P1;PMS_P2;Temp;Humidity;BMP_temperature;BMP_pressure;BME280_temperature;BME280_humidity;BME280_pressure;Samples;Min_cycle;Max_cycle;Signal;HPM_P1;HPM_P2
2022/05/30 00:00:45;;;;;;;17.08;11.95;;;384.80;2329.60;;;;;;5052357;28;20025;-79
2022/05/30 00:03:11;;;;;;;19.27;13.23;;;384.80;2329.60;;;;;;5052390;28;20033;-79
2022/05/30 00:05:41;;;;;;;20.67;13.13;;;384.80;2329.60;;;;;;5052196;28;20090;-79
2022/05/30 00:08:07;;;;;;;15.20;11.98;;;384.70;2329.60;;;;;;5052017;28;20063;-79
2022/05/30 00:10:33;;;;;;;18.52;12.52;;;384.50;2329.60;;;;;;5051972;28;20044;-79
2022/05/30 00:12:59;;;;;;;22.48;13.98;;;384.50;2329.60;;;;;;5051947;28;20487;-79
2022/05/30 00:15:25;;;;;;;16.85;14.07;;;384.40;2329.60;;;;;;5051943;28;20468;-79
2022/05/30 00:17:56;;;;;;;17.48;13.88;;;384.40;2329.60;;;;;;5085315;28;20044;-79
2022/05/30 00:20:21;;;;;;;19.23;13.02;;;384.30;2329.60;;;;;;5051743;28;20033;-79
2022/05/30 00:22:47;;;;;;;25.02;15.68;;;384.40;2329.60;;;;;;5051795;28;20495;-79
2022/05/30 00:25:13;;;;;;;22.00;15.55;;;384.40;2329.60;;;;;;5051702;28;20028;-80
2022/05/30 00:27:39;;;;;;;24.13;15.48;;;384.40;2329.60;;;;;;5051690;28;20031;-80
2022/05/30 00:30:05;;;;;;;20.80;15.20;;;384.30;2329.60;;;;;;5051684;28;20029;-80
2022/05/30 00:32:33;;;;;;;20.80;15.55;;;384.30;2329.60;;;;;;5051558;28;20036;-79
2022/05/30 00:34:59;;;;;;;24.13;15.40;;;384.20;2329.60;;;;;;5051636;28;20021;-80
2022/05/30 00:37:26;;;;;;;18.45;13.35;;;384.10;2329.60;;;;;;5051584;28;20025;-79
2022/05/30 00:39:52;;;;;;;19.65;13.85;;;384.10;2329.60;;;;;;5051514;28;20074;-80
2022/05/30 00:42:21;;;;;;;19.33;13.88;;;384.00;2329.60;;;;;;5051388;28;20029;-80
2022/05/30 00:44:48;;;;;;;17.48;10.75;;;384.00;2329.60;;;;;;5051551;28;20078;-79
2022/05/30 00:47:16;;;;;;;17.88;12.25;;;359.20;2329.60;;;;;;5051449;28;20025;-80
2022/05/30 00:49:44;;;;;;;23.73;11.88;;;359.20;2329.60;;;;;;5051292;28;20029;-80
2022/05/30 00:52:17;;;;;;;18.08;11.93;;;359.20;2329.60;;;;;;5051017;28;20029;-79
2022/05/30 00:55:09;;;;;;;17.40;12.38;;;359.20;2329.60;;;;;;5051381;28;20028;-81
2022/05/30 00:57:37;;;;;;;17.63;12.02;;;359.30;2329.60;;;;;;5046336;28;20614;-79
2022/05/30 01:00:20;;;;;;;13.63;11.95;;;359.20;2329.60;;;;;;5051337;28;20029;-81
2022/05/30 01:06:30;;;;;;;19.35;13.00;;;359.20;2329.60;;;;;;5051255;28;20121;-80
2022/05/30 01:08:16;;;;;;;15.27;12.23;;;359.00;2329.60;;;;;;5052358;28;20036;-80
2022/05/30 01:10:42;;;;;;;20.63;13.95;;;359.00;2329.60;;;;;;5050769;28;20395;-79
2022/05/30 01:13:12;;;;;;;21.20;13.85;;;359.00;2329.60;;;;;;5050779;28;20033;-79
2022/05/30 01:15:38;;;;;;;16.13;12.23;;;359.00;2329.60;;;;;;5050756;28;20025;-78
2022/05/30 01:18:12;;;;;;;18.27;12.90;;;359.00;2329.60;;;;;;5050674;28;20037;-79
2022/05/30 01:21:11;;;;;;;16.17;13.20;;;358.90;2329.60;;;;;;5050839;28;20029;-79
2022/05/30 01:23:37;;;;;;;21.38;13.93;;;359.00;2329.60;;;;;;5050858;28;20511;-78
2022/05/30 01:26:17;;;;;;;25.77;13.50;;;359.10;2329.60;;;;;;5050867;28;20029;-78
2022/05/30 01:29:03;;;;;;;15.95;13.00;;;359.10;2329.60;;;;;;5050341;28;20103;-79
2022/05/30 01:31:29;;;;;;;15.30;13.02;;;359.20;2329.60;;;;;;5050694;28;20025;-78
2022/05/30 01:33:55;;;;;;;22.10;13.13;;;359.20;2329.60;;;;;;5050852;28;20523;-78
2022/05/30 01:36:26;;;;;;;20.67;12.73;;;359.20;2329.60;;;;;;5050803;28;20029;-79
2022/05/30 01:38:52;;;;;;;13.38;11.93;;;359.20;2329.60;;;;;;5051396;28;20078;-78
2022/05/30 01:41:18;;;;;;;17.42;11.88;;;359.20;2329.60;;;;;;5051543;28;20025;-78
2022/05/30 01:43:45;;;;;;;15.65;13.43;;;359.10;2329.60;;;;;;5051571;28;20036;-79
2022/05/30 01:46:15;;;;;;;17.42;11.73;;;359.20;2329.60;;;;;;5051313;28;20021;-79
2022/05/30 01:48:40;;;;;;;17.05;11.60;;;359.20;2329.60;;;;;;5051684;28;20032;-79
2022/05/30 01:51:06;;;;;;;17.60;11.82;;;359.00;2329.60;;;;;;5051806;28;20025;-78
2022/05/30 01:53:32;;;;;;;16.25;12.02;;;359.00;2329.60;;;;;;5051529;28;20384;-79
2022/05/30 01:55:58;;;;;;;18.52;13.15;;;359.00;2329.60;;;;;;5051595;28;20032;-78
2022/05/30 01:58:24;;;;;;;17.83;13.40;;;359.10;2329.60;;;;;;5050497;28;20108;-79
2022/05/30 02:00:50;;;;;;;15.05;13.45;;;359.20;2329.60;;;;;;5050480;28;20032;-78
2022/05/30 02:03:16;;;;;;;17.25;12.45;;;359.20;2329.60;;;;;;5053962;28;20027;-78
2022/05/30 02:05:42;;;;;;;15.90;12.15;;;359.20;2329.60;;;;;;5054363;28;20379;-79
2022/05/30 02:08:08;;;;;;;21.38;12.23;;;359.10;2329.60;;;;;;5054109;28;20032;-79
2022/05/30 02:10:34;;;;;;;15.68;12.23;;;359.10;2329.60;;;;;;5054230;28;20481;-78
2022/05/30 02:13:02;;;;;;;14.07;11.05;;;359.10;2329.60;;;;;;5053991;28;20025;-79
2022/05/30 02:15:28;;;;;;;18.42;12.23;;;359.10;2329.60;;;;;;5054150;28;20361;-78
2022/05/30 02:17:54;;;;;;;14.32;11.65;;;359.10;2329.60;;;;;;5053786;28;20033;-79
2022/05/30 02:20:20;;;;;;;23.30;11.43;;;359.00;2329.60;;;;;;5054203;28;20025;-79
2022/05/30 02:22:46;;;;;;;16.33;11.15;;;358.90;2329.60;;;;;;5054275;28;20036;-78
2022/05/30 02:25:12;;;;;;;16.98;12.93;;;358.90;2329.60;;;;;;5054011;28;20036;-80
2022/05/30 02:27:41;;;;;;;14.93;13.25;;;359.00;2329.60;;;;;;5053839;28;20112;-78
2022/05/30 02:30:08;;;;;;;23.70;12.23;;;359.00;2329.60;;;;;;5053890;28;20036;-78
2022/05/30 02:32:34;;;;;;;19.70;12.23;;;358.90;2329.60;;;;;;5053623;28;20021;-78
2022/05/30 02:37:44;;;;;;;17.98;12.13;;;359.00;2329.60;;;;;;5054878;28;20044;-79
2022/05/30 02:40:10;;;;;;;14.93;12.55;;;359.00;2329.60;;;;;;5053853;28;20025;-78
2022/05/30 02:42:36;;;;;;;21.35;12.88;;;359.10;2329.60;;;;;;5053875;28;20025;-80
2022/05/30 02:45:02;;;;;;;24.60;14.10;;;359.00;2329.60;;;;;;5053674;28;20025;-79
2022/05/30 02:47:28;;;;;;;16.35;12.70;;;359.00;2329.60;;;;;;5053659;28;20055;-80
2022/05/30 02:49:54;;;;;;;16.02;11.60;;;359.00;2329.60;;;;;;5053680;28;20025;-79
2022/05/30 02:52:20;;;;;;;18.83;11.88;;;359.00;2329.60;;;;;;5053568;28;20078;-81
2022/05/30 02:54:45;;;;;;;17.33;12.68;;;359.10;2329.60;;;;;;5053495;28;20028;-81
2022/05/30 02:57:11;;;;;;;18.92;12.00;;;359.10;2329.60;;;;;;5053374;28;20091;-80
2022/05/30 02:59:37;;;;;;;13.05;11.00;;;359.10;2329.60;;;;;;5053667;28;20151;-80
2022/05/30 03:02:03;;;;;;;19.25;12.75;;;359.10;2329.60;;;;;;5053632;28;20464;-80
2022/05/30 03:04:29;;;;;;;16.65;11.93;;;359.20;2329.60;;;;;;5053549;28;20025;-81
2022/05/30 03:06:55;;;;;;;14.93;11.60;;;359.10;2329.60;;;;;;5053478;28;20385;-79
2022/05/30 03:09:21;;;;;;;19.02;10.75;;;359.10;2329.60;;;;;;5053586;28;20119;-80
2022/05/30 03:11:47;;;;;;;16.30;12.68;;;359.20;2329.60;;;;;;5053235;28;20451;-81
2022/05/30 03:14:12;;;;;;;26.92;13.23;;;359.10;2329.60;;;;;;5053052;28;20032;-79
2022/05/30 03:16:38;;;;;;;17.90;11.80;;;359.10;2329.60;;;;;;5052859;28;20029;-79
2022/05/30 03:19:04;;;;;;;16.45;12.65;;;359.10;2329.60;;;;;;5052588;28;20037;-79
2022/05/30 03:21:29;;;;;;;16.50;11.82;;;359.10;2329.60;;;;;;5053399;28;20118;-84
2022/05/30 03:23:56;;;;;;;23.95;12.40;;;359.10;2329.60;;;;;;5054721;28;20025;-84
2022/05/30 03:26:22;;;;;;;16.27;11.73;;;359.10;2329.60;;;;;;5053783;28;20039;-80
2022/05/30 03:28:47;;;;;;;18.27;11.05;;;359.10;2329.60;;;;;;5053298;28;20045;-79
2022/05/30 03:31:13;;;;;;;17.55;12.07;;;359.10;2329.60;;;;;;5051858;28;20029;-80
2022/05/30 03:33:39;;;;;;;18.42;12.55;;;359.10;2329.60;;;;;;5052973;28;20036;-82
2022/05/30 03:36:32;;;;;;;18.38;12.15;;;359.10;2329.60;;;;;;5052964;28;20025;-79
2022/05/30 03:38:57;;;;;;;23.55;14.05;;;359.30;2329.60;;;;;;5049937;28;20052;-82
2022/05/30 03:41:23;;;;;;;19.00;11.38;;;359.30;2329.60;;;;;;5053683;28;20071;-85
2022/05/30 03:43:49;;;;;;;18.33;12.27;;;359.20;2329.60;;;;;;5052175;28;20021;-77
2022/05/30 03:46:15;;;;;;;17.63;13.07;;;359.20;2329.60;;;;;;5052796;28;20031;-77
2022/05/30 03:48:41;;;;;;;21.10;12.45;;;359.30;2329.60;;;;;;5052062;28;20043;-76
2022/05/30 03:51:12;;;;;;;14.77;11.82;;;384.00;2329.60;;;;;;5052451;28;21152;-76
2022/05/30 03:53:38;;;;;;;19.27;12.85;;;384.00;2329.60;;;;;;5050657;28;20120;-77
2022/05/30 03:56:04;;;;;;;16.55;11.13;;;384.00;2329.60;;;;;;5050801;28;20025;-76
2022/05/30 03:58:30;;;;;;;13.40;11.30;;;384.00;2329.60;;;;;;5050646;28;20549;-76
2022/05/30 04:00:56;;;;;;;14.55;11.10;;;384.20;2329.60;;;;;;5050401;28;20083;-76
2022/05/30 04:03:21;;;;;;;15.10;10.75;;;384.40;2329.60;;;;;;5050601;28;20075;-77
2022/05/30 04:05:47;;;;;;;14.18;10.70;;;384.40;2329.60;;;;;;5082929;28;20056;-76
2022/05/30 04:08:13;;;;;;;15.48;11.80;;;384.60;2329.60;;;;;;5050461;28;20025;-77
2022/05/30 04:10:38;;;;;;;19.23;10.55;;;384.70;2329.60;;;;;;5050381;28;20057;-77
2022/05/30 04:13:07;;;;;;;22.17;11.25;;;384.70;2329.60;;;;;;5050248;28;20025;-77
2022/05/30 04:15:33;;;;;;;18.67;10.65;;;384.80;2329.60;;;;;;5035817;28;20037;-77
2022/05/30 04:17:59;;;;;;;20.08;10.60;;;384.70;2329.60;;;;;;5045620;28;20051;-77
2022/05/30 04:20:25;;;;;;;22.00;11.00;;;384.70;2329.60;;;;;;5082554;28;20111;-76
2022/05/30 04:22:50;;;;;;;15.57;11.07;;;384.80;2329.60;;;;;;5051899;28;20491;-76
2022/05/30 04:25:16;;;;;;;26.45;13.15;;;384.80;2329.60;;;;;;5083806;28;20055;-77
2022/05/30 04:27:42;;;;;;;13.48;9.10;;;384.80;2329.60;;;;;;5050750;28;20078;-77
2022/05/30 04:30:09;;;;;;;17.02;10.13;;;384.60;2329.60;;;;;;5050766;28;20033;-76
2022/05/30 04:32:36;;;;;;;18.25;10.55;;;384.50;2329.60;;;;;;5049112;28;20532;-79
2022/05/30 04:35:03;;;;;;;20.70;11.15;;;384.70;2329.60;;;;;;5049335;28;20404;-78
2022/05/30 04:37:29;;;;;;;15.35;10.80;;;384.70;2329.60;;;;;;5047311;28;20040;-78
2022/05/30 04:39:55;;;;;;;15.25;10.05;;;384.60;2329.60;;;;;;5048324;28;20021;-76
2022/05/30 04:42:20;;;;;;;18.58;13.07;;;384.90;2329.60;;;;;;5048248;28;20035;-77
2022/05/30 04:44:46;;;;;;;18.25;16.10;;;409.60;2355.20;;;;;;5048378;28;20017;-78
2022/05/30 04:47:12;;;;;;;29.40;14.77;;;409.80;2355.20;;;;;;5049354;28;20094;-77
2022/05/30 04:49:38;;;;;;;15.65;12.32;;;;;;;;;;5049482;28;20028;-76
2022/05/30 04:52:05;;;;;;;17.55;10.85;;;;;;;;;;5048666;28;20021;-79
2022/05/30 04:54:31;;;;;;;11.95;10.18;;;;;;;;;;5050658;28;20025;-77
2022/05/30 04:56:58;;;;;;;22.02;13.02;;;;;;;;;;5049379;28;20013;-79
2022/05/30 04:59:25;;;;;;;23.77;12.70;;;436.10;2355.20;;;;;;5048954;28;20029;-77
2022/05/30 05:01:51;;;;;;;15.85;11.00;;;;;;;;;;5050534;28;20108;-78
2022/05/30 05:04:17;;;;;;;13.38;11.57;;;;;;;;;;5049911;28;20024;-77
2022/05/30 05:06:43;;;;;;;13.95;11.93;;;;;;;;;;5047915;28;20032;-77
2022/05/30 05:09:15;;;;;;;21.80;11.25;;;;;;;;;;5049478;28;20024;-79
2022/05/30 05:11:42;;;;;;;14.82;10.52;;;;;;;;;;5050798;28;20083;-78
2022/05/30 05:14:08;;;;;;;18.60;10.93;;;;;;;;;;5049688;28;20108;-79
2022/05/30 05:16:34;;;;;;;20.75;11.35;;;;;;;;;;5049535;28;20028;-78
2022/05/30 05:19:00;;;;;;;18.60;11.52;;;;;;;;;;5049885;28;20037;-77
2022/05/30 05:21:26;;;;;;;13.82;11.65;;;;;;;;;;5048873;28;20555;-77
2022/05/30 05:23:53;;;;;;;19.48;10.90;;;;;;;;;;5049846;28;20063;-80
2022/05/30 05:26:19;;;;;;;22.63;15.88;;;436.00;2355.20;;;;;;5049852;28;20055;-78
2022/05/30 05:28:46;;;;;;;22.13;13.52;;;436.00;2355.20;;;;;;5049343;28;20087;-79
2022/05/30 05:31:25;;;;;;;15.00;11.45;;;460.80;2380.80;;;;;;5046620;28;20028;-79
2022/05/30 05:33:52;;;;;;;20.98;12.25;;;;;;;;;;5049237;28;20031;-78
2022/05/30 05:36:20;;;;;;;21.92;11.40;;;;;;;;;;5049893;28;20017;-79
2022/05/30 05:38:46;;;;;;;14.10;9.88;;;;;;;;;;5054178;28;20116;-77
2022/05/30 05:41:12;;;;;;;15.25;11.20;;;;;;;;;;5051537;28;20124;-77
2022/05/30 05:43:38;;;;;;;14.60;10.93;;;;;;;;;;5053265;28;20465;-78
2022/05/30 05:46:04;;;;;;;18.75;11.20;;;;;;;;;;5049952;28;20048;-78
2022/05/30 05:48:30;;;;;;;14.25;10.82;;;;;;;;;;5052893;28;20027;-77
2022/05/30 05:50:56;;;;;;;24.00;14.60;;;;;;;;;;5052394;28;20036;-79
2022/05/30 05:53:22;;;;;;;20.00;10.68;;;;;;;;;;5052582;28;20037;-78
2022/05/30 05:55:48;;;;;;;20.33;11.95;;;;;;;;;;5052188;28;20013;-79
2022/05/30 05:58:14;;;;;;;15.32;10.60;;;;;;;;;;5053133;28;20159;-79
2022/05/30 06:00:40;;;;;;;19.67;11.73;;;512.10;2380.80;;;;;;5053480;28;20029;-76
2022/05/30 06:03:06;;;;;;;13.88;10.20;;;;;;;;;;5053023;28;20025;-80
2022/05/30 06:05:32;;;;;;;14.68;8.93;;;;;;;;;;5053608;28;20033;-79
2022/05/30 06:08:01;;;;;;;13.65;9.15;;;512.60;2380.80;;;;;;5052737;28;20024;-77
2022/05/30 06:10:27;;;;;;;17.60;10.98;;;512.50;2380.80;;;;;;5052016;28;20383;-78
2022/05/30 06:12:53;;;;;;;21.83;12.52;;;512.70;2380.80;;;;;;5052393;28;20107;-77
2022/05/30 06:15:19;;;;;;;18.55;13.20;;;512.40;2380.80;;;;;;5052681;28;20112;-77
2022/05/30 06:17:46;;;;;;;22.63;14.05;;;512.10;2380.80;;;;;;5054046;28;20033;-77
2022/05/30 06:20:14;;;;;;;20.10;13.73;;;512.50;2380.80;;;;;;5054032;28;20464;-78
2022/05/30 06:22:40;;;;;;;17.15;13.27;;;512.60;2380.80;;;;;;5053812;28;20021;-78
2022/05/30 06:25:07;;;;;;;19.75;13.85;;;512.40;2380.80;;;;;;5052494;28;20029;-79
2022/05/30 06:27:34;;;;;;;22.52;13.82;;;512.80;2380.80;;;;;;5052082;28;20025;-79
2022/05/30 06:30:01;;;;;;;17.73;13.90;;;512.80;2380.80;;;;;;5052462;28;20468;-79
2022/05/30 06:32:27;;;;;;;19.88;12.77;;;538.20;2406.40;;;;;;5052011;28;20021;-79
2022/05/30 06:34:54;;;;;;;17.35;11.48;;;538.10;2406.40;;;;;;5052253;28;20379;-77
2022/05/30 06:37:20;;;;;;;16.73;11.65;;;538.30;2406.40;;;;;;5053320;28;20402;-79
2022/05/30 06:39:46;;;;;;;17.08;11.00;;;563.20;2432.00;;;;;;5051761;28;20041;-79
2022/05/30 06:42:13;;;;;;;23.20;15.02;;;563.40;2432.00;;;;;;5051615;28;20032;-76
2022/05/30 06:44:39;;;;;;;19.13;12.38;;;563.50;2432.00;;;;;;5053461;28;20056;-79
2022/05/30 06:47:07;;;;;;;14.45;12.95;;;563.50;2432.00;;;;;;5052614;28;20112;-77
2022/05/30 06:49:34;;;;;;;15.93;13.70;;;538.40;2406.40;;;;;;5052727;28;20013;-77
2022/05/30 06:52:00;;;;;;;16.55;13.15;;;538.30;2406.40;;;;;;5051298;28;20057;-79
2022/05/30 06:54:26;;;;;;;24.25;12.93;;;563.30;2432.00;;;;;;5053495;28;20112;-79
2022/05/30 06:59:36;;;;;;;21.98;11.55;;;563.90;2432.00;;;;;;5051985;28;20492;-76
2022/05/30 07:02:04;;;;;;;18.98;12.13;;;588.80;2432.00;;;;;;5051693;28;20464;-78
2022/05/30 07:04:33;;;;;;;20.45;12.05;;;588.80;2432.00;;;;;;5052474;28;20033;-80
2022/05/30 07:07:04;;;;;;;19.95;12.80;;;563.80;2432.00;;;;;;5052216;28;20029;-78
2022/05/30 07:09:30;;;;;;;17.83;12.85;;;588.80;2432.00;;;;;;5051289;28;20059;-78
2022/05/30 07:11:56;;;;;;;22.63;12.55;;;563.50;2432.00;;;;;;5051273;28;20052;-79
2022/05/30 07:14:22;;;;;;;12.13;10.55;;;563.60;2432.00;;;;;;5051290;28;20029;-79
2022/05/30 07:16:48;;;;;;;14.45;12.18;;;563.40;2432.00;;;;;;5051317;28;20025;-77
2022/05/30 07:19:14;;;;;;;18.25;10.93;;;563.20;2432.00;;;;;;5053085;28;20049;-77
2022/05/30 07:21:41;;;;;;;15.63;9.93;;;563.50;2432.00;;;;;;5051906;28;20063;-78
2022/05/30 07:24:07;;;;;;;13.38;10.43;;;563.30;2432.00;;;;;;5051702;28;20017;-79
2022/05/30 07:26:33;;;;;;;18.33;11.00;;;563.50;2432.00;;;;;;5055471;28;20082;-78
2022/05/30 07:28:58;;;;;;;18.98;10.48;;;563.40;2432.00;;;;;;5054789;28;20049;-78
2022/05/30 07:31:25;;;;;;;13.15;10.27;;;563.80;2432.00;;;;;;5052267;28;20033;-77
2022/05/30 07:33:52;;;;;;;13.13;9.88;;;563.70;2432.00;;;;;;5046182;28;20586;-77
2022/05/30 07:36:27;;;;;;;16.25;10.30;;;563.60;2432.00;;;;;;5051237;28;20114;-77
2022/05/30 07:38:53;;;;;;;18.40;13.60;;;563.50;2432.00;;;;;;5050427;28;20041;-78
2022/05/30 07:41:21;;;;;;;24.50;15.90;;;563.70;2432.00;;;;;;5050686;28;20033;-78
2022/05/30 07:43:47;;;;;;;14.57;11.27;;;563.80;2432.00;;;;;;5050871;28;20036;-79
2022/05/30 07:46:15;;;;;;;13.68;11.20;;;588.90;2432.00;;;;;;5051211;28;20079;-79
2022/05/30 07:48:42;;;;;;;23.40;11.95;;;564.00;2432.00;;;;;;5051827;28;20543;-79
2022/05/30 07:51:09;;;;;;;18.40;12.48;;;564.10;2432.00;;;;;;5052481;28;20021;-78
2022/05/30 07:53:37;;;;;;;14.85;9.98;;;563.90;2432.00;;;;;;5047700;28;20400;-81
2022/05/30 07:56:21;;;;;;;24.92;10.45;;;563.90;2432.00;;;;;;5050804;28;20029;-77
2022/05/30 07:58:46;;;;;;;12.38;10.40;;;589.10;2432.00;;;;;;5050867;28;20072;-78
2022/05/30 08:01:15;;;;;;;16.85;12.43;;;589.20;2432.00;;;;;;5049178;28;20056;-76
2022/05/30 08:03:41;;;;;;;21.48;17.10;;;;;;;;;;5047512;28;20074;-76
2022/05/30 08:06:17;;;;;;;14.73;12.20;;;615.20;2432.00;;;;;;5050522;28;20392;-78
2022/05/30 08:08:43;;;;;;;14.45;9.73;;;;;;;;;;5050629;28;20380;-78
2022/05/30 08:11:09;;;;;;;13.43;10.07;;;;;;;;;;5052210;28;20053;-78
2022/05/30 08:13:36;;;;;;;17.42;9.55;;;;;;;;;;5052676;28;20056;-78
2022/05/30 08:16:02;;;;;;;10.98;9.02;;;;;;;;;;5051948;28;20021;-78
2022/05/30 08:18:29;;;;;;;15.93;9.00;;;;;;;;;;5051687;28;20033;-77
2022/05/30 08:20:55;;;;;;;21.35;10.07;;;;;;;;;;5050861;28;20020;-80
2022/05/30 08:23:23;;;;;;;15.02;9.50;;;;;;;;;;5052217;28;20039;-78
2022/05/30 08:25:49;;;;;;;15.85;13.27;;;;;;;;;;5051180;28;20017;-80
2022/05/30 08:28:15;;;;;;;18.67;14.40;;;;;;;;;;5051292;28;20045;-79
2022/05/30 08:30:42;;;;;;;13.45;10.82;;;;;;;;;;5052472;28;20060;-79
2022/05/30 08:33:12;;;;;;;22.23;17.88;;;;;;;;;;5051297;28;20472;-78
2022/05/30 08:35:38;;;;;;;23.08;18.08;;;;;;;;;;5050099;28;20488;-79
2022/05/30 08:38:04;;;;;;;23.65;18.63;;;;;;;;;;5051133;28;20546;-78
2022/05/30 08:43:19;;;;;;;18.05;12.95;;;;;;;;;;5052227;28;20078;-78
2022/05/30 08:45:46;;;;;;;19.85;10.70;;;;;;;;;;5051803;28;20021;-77
2022/05/30 08:48:13;;;;;;;17.10;10.63;;;;;;;;;;5050950;28;20472;-78
2022/05/30 08:50:40;;;;;;;14.13;11.10;;;;;;;;;;5050468;28;20021;-78
2022/05/30 08:53:09;;;;;;;13.82;10.48;;;;;;;;;;5051658;28;20117;-78
2022/05/30 08:55:38;;;;;;;23.40;10.80;;;;;;;;;;5050759;28;20075;-79
2022/05/30 08:58:16;;;;;;;20.30;12.80;;;;;;;;;;5049940;28;20063;-79
2022/05/30 09:00:46;;;;;;;16.00;9.35;;;;;;;;;;5051456;28;20468;-76
2022/05/30 09:03:36;;;;;;;14.15;12.35;;;615.10;2432.00;;;;;;5050501;28;20024;-80
2022/05/30 09:06:04;;;;;;;15.05;10.40;;;615.20;2406.40;;;;;;5050743;28;20542;-79
2022/05/30 09:08:45;;;;;;;19.23;11.73;;;615.10;2380.80;;;;;;5051667;28;20496;-79
2022/05/30 09:11:43;;;;;;;16.45;9.75;;;615.30;2355.20;;;;;;5051129;28;20052;-79
2022/05/30 09:14:31;;;;;;;14.85;10.60;;;615.20;2406.40;;;;;;5051369;28;20040;-78
2022/05/30 09:16:59;;;;;;;15.93;10.95;;;;;;;;;;5050057;28;20141;-77
2022/05/30 09:19:25;;;;;;;16.08;11.73;;;589.50;2432.00;;;;;;5049907;28;20028;-80
2022/05/30 09:21:54;;;;;;;16.63;11.88;;;589.70;2432.00;;;;;;5050125;28;20025;-80
2022/05/30 09:24:21;;;;;;;15.70;13.48;;;614.40;2432.00;;;;;;5050214;28;20503;-79
2022/05/30 09:26:46;;;;;;;16.67;14.88;;;589.50;2432.00;;;;;;5051726;28;20049;-80
2022/05/30 09:29:19;;;;;;;18.83;11.63;;;589.50;2432.00;;;;;;5049650;28;20150;-78
2022/05/30 09:31:55;;;;;;;24.73;12.00;;;589.20;2432.00;;;;;;5051258;28;20472;-79
2022/05/30 09:34:49;;;;;;;16.98;11.75;;;614.70;2432.00;;;;;;5050119;28;20056;-80
2022/05/30 09:37:38;;;;;;;15.40;10.77;;;615.00;2432.00;;;;;;5045096;28;20041;-78
2022/05/30 09:40:04;;;;;;;21.88;12.88;;;614.70;2432.00;;;;;;5061261;28;20030;-77
2022/05/30 09:42:32;;;;;;;27.30;20.92;;;;;;;;;;5029465;28;20025;-79
2022/05/30 09:45:07;;;;;;;37.65;31.58;;;;;;;;;;5038879;28;20025;-82
2022/05/30 09:47:34;;;;;;;21.70;12.75;;;615.30;2432.00;;;;;;5047960;28;20028;-75
2022/05/30 09:50:12;;;;;;;16.10;12.68;;;615.20;2432.00;;;;;;5029846;28;20477;-79
2022/05/30 09:52:39;;;;;;;22.88;15.70;;;640.00;2432.00;;;;;;5031728;28;20029;-83
2022/05/30 09:55:36;;;;;;;21.38;16.05;;;640.40;2406.40;;;;;;5029829;28;20029;-77
2022/05/30 09:58:04;;;;;;;20.70;14.50;;;640.60;2329.60;;;;;;5015525;28;20045;-76
2022/05/30 10:00:29;;;;;;;13.80;11.25;;;640.40;2380.80;;;;;;5029283;28;20461;-78
2022/05/30 10:03:24;;;;;;;19.85;16.02;;;640.50;2380.80;;;;;;5030327;28;20053;-80
2022/05/30 10:05:49;;;;;;;24.98;14.75;;;640.10;2380.80;;;;;;5046030;28;20360;-77
2022/05/30 10:08:27;;;;;;;19.45;16.33;;;615.30;2432.00;;;;;;5030993;28;20388;-80
2022/05/30 10:10:56;;;;;;;20.48;12.57;;;640.10;2432.00;;;;;;5050395;28;20029;-77
2022/05/30 10:13:42;;;;;;;15.27;10.73;;;640.20;2406.40;;;;;;5048883;28;20579;-77
2022/05/30 10:16:13;;;;;;;18.13;12.90;;;640.10;2432.00;;;;;;5049560;28;20029;-79
2022/05/30 10:18:54;;;;;;;12.27;9.07;;;640.40;2355.20;;;;;;5050537;28;20408;-75
2022/05/30 10:28:14;;;;;;;16.05;11.30;;;640.40;2380.80;;;;;;5048814;28;20036;-78
2022/05/30 10:30:26;;;;;;;13.30;8.55;;;;;;;;;;5053853;28;20047;-83
2022/05/30 10:33:16;;;;;;;17.75;9.90;;;;;;;;;;5055284;28;20025;-82
2022/05/30 10:35:58;;;;;;;13.45;8.68;;;;;;;;;;5054683;28;20097;-82
2022/05/30 10:38:43;;;;;;;17.23;10.75;;;;;;;;;;5056176;28;20033;-84
2022/05/30 10:41:32;;;;;;;13.52;8.98;;;;;;;;;;5054478;28;20025;-80
2022/05/30 10:44:18;;;;;;;12.70;11.27;;;;;;;;;;5050327;28;20040;-79
2022/05/30 10:46:44;;;;;;;12.65;7.60;;;;;;;;;;5076068;28;20033;-76
2022/05/30 10:49:14;;;;;;;20.13;14.52;;;;;;;;;;5051277;28;20021;-82
2022/05/30 10:51:43;;;;;;;17.40;9.65;;;;;;;;;;5054800;28;20099;-81
2022/05/30 10:54:16;;;;;;;14.15;8.75;;;;;;;;;;5054836;28;20028;-84
2022/05/30 10:56:45;;;;;;;14.88;9.68;;;;;;;;;;5053194;28;20345;-82
2022/05/30 10:59:23;;;;;;;21.85;8.25;;;;;;;;;;5053638;28;20045;-81
2022/05/30 11:01:54;;;;;;;18.85;10.82;;;;;;;;;;5053336;28;20029;-82
2022/05/30 11:04:25;;;;;;;14.25;9.00;;;;;;;;;;5052843;28;20496;-82
2022/05/30 11:06:53;;;;;;;10.40;6.65;;;;;;;;;;5052339;28;20539;-80
2022/05/30 11:09:51;;;;;;;11.30;6.78;;;;;;;;;;5053008;28;20108;-84
2022/05/30 11:12:23;;;;;;;9.82;7.93;;;;;;;;;;5041597;28;20033;-83
2022/05/30 11:14:50;;;;;;;11.80;8.95;;;;;;;;;;5052821;28;20045;-80
2022/05/30 11:17:31;;;;;;;15.57;11.35;;;;;;;;;;5051947;28;20017;-82
2022/05/30 11:20:11;;;;;;;17.95;13.85;;;;;;;;;;5054328;28;20043;-82
2022/05/30 11:22:43;;;;;;;18.85;9.88;;;;;;;;;;5049523;28;20079;-81
2022/05/30 11:25:12;;;;;;;10.10;5.80;;;;;;;;;;5052785;28;20036;-83
2022/05/30 11:27:42;;;;;;;12.32;7.28;;;;;;;;;;5052782;28;20329;-81
2022/05/30 11:30:18;;;;;;;9.90;6.93;;;;;;;;;;5051641;28;20029;-82
2022/05/30 11:32:44;;;;;;;11.15;6.63;;;;;;;;;;5034237;28;20026;-82
2022/05/30 11:35:13;;;;;;;11.32;8.20;;;;;;;;;;5051429;28;20043;-80
2022/05/30 11:37:49;;;;;;;16.50;7.88;;;;;;;;;;5052284;28;20088;-80
2022/05/30 11:40:27;;;;;;;11.95;7.97;;;717.00;1996.80;;;;;;5052458;28;20029;-81
2022/05/30 11:43:05;;;;;;;15.02;9.20;;;;;;;;;;5052367;28;20040;-80
2022/05/30 11:45:35;;;;;;;13.65;8.85;;;;;;;;;;5053929;28;20024;-82
2022/05/30 11:48:19;;;;;;;12.63;8.35;;;;;;;;;;5052170;28;20028;-83
2022/05/30 11:50:57;;;;;;;12.63;7.22;;;;;;;;;;5053343;28;20098;-80
2022/05/30 11:53:42;;;;;;;17.55;6.22;;;;;;;;;;5052132;28;20063;-79
2022/05/30 11:56:08;;;;;;;15.68;12.30;;;;;;;;;;5053120;28;20036;-78
2022/05/30 11:59:03;;;;;;;14.32;7.47;;;742.80;1843.20;;;;;;5053091;28;20399;-79
2022/05/30 12:01:31;;;;;;;16.77;8.45;;;742.40;1868.80;;;;;;5051774;28;20036;-81
2022/05/30 12:04:15;;;;;;;12.35;7.95;;;742.50;1894.40;;;;;;5051668;28;20119;-82
2022/05/30 12:06:55;;;;;;;13.68;7.78;;;742.40;1920.00;;;;;;5052534;28;20545;-78
2022/05/30 12:09:24;;;;;;;18.00;8.27;;;717.20;1920.00;;;;;;5051842;28;20094;-81
2022/05/30 12:12:12;;;;;;;12.95;7.82;;;717.20;1971.20;;;;;;5053992;28;20027;-83
2022/05/30 12:14:56;;;;;;;10.68;8.23;;;742.40;1920.00;;;;;;5052516;28;20032;-83
2022/05/30 12:23:47;;;;;;;12.27;7.10;;;742.70;1894.40;;;;;;5052939;28;20033;-83
2022/05/30 12:26:02;;;;;;;16.75;7.75;;;;;;;;;;5052702;28;20043;-79
2022/05/30 12:28:28;;;;;;;9.82;6.78;;;;;;;;;;5052633;28;20045;-83
2022/05/30 12:30:58;;;;;;;18.88;7.35;;;742.40;1920.00;;;;;;5052748;28;20081;-85
2022/05/30 12:33:29;;;;;;;16.27;7.32;;;717.60;1894.40;;;;;;5051969;28;20115;-78
2022/05/30 12:36:10;;;;;;;16.35;7.63;;;717.70;1868.80;;;;;;5052775;28;20033;-78
2022/05/30 12:38:56;;;;;;;13.02;8.20;;;742.70;1868.80;;;;;;5051417;28;20040;-83
2022/05/30 12:41:54;;;;;;;12.60;6.40;;;742.50;1894.40;;;;;;5051518;28;20041;-78
2022/05/30 12:44:46;;;;;;;19.23;7.20;;;;;;;;;;5051863;28;20078;-84
2022/05/30 12:47:18;;;;;;;10.50;7.30;;;;;;;;;;5049267;28;20036;-82
2022/05/30 12:49:49;;;;;;;12.77;6.57;;;;;;;;;;5051356;28;20036;-83
2022/05/30 12:52:20;;;;;;;15.20;6.40;;;794.10;1664.00;;;;;;5051346;28;20104;-81
2022/05/30 12:54:58;;;;;;;13.50;7.55;;;;;;;;;;5053066;28;20036;-84
2022/05/30 12:57:44;;;;;;;11.35;6.63;;;;;;;;;;5052737;28;20025;-84
2022/05/30 13:00:14;;;;;;;13.80;7.07;;;;;;;;;;5051274;28;20048;-81
2022/05/30 13:03:03;;;;;;;9.75;6.95;;;;;;;;;;5052619;28;20086;-83
2022/05/30 13:05:41;;;;;;;12.05;7.78;;;;;;;;;;5051508;28;20514;-79
2022/05/30 13:08:26;;;;;;;22.17;7.88;;;;;;;;;;5051343;28;20080;-82
2022/05/30 13:10:55;;;;;;;16.20;9.52;;;;;;;;;;5050848;28;20554;-78
2022/05/30 13:13:29;;;;;;;16.90;8.68;;;;;;;;;;5049627;28;20033;-76
2022/05/30 13:15:57;;;;;;;21.63;9.88;;;;;;;;;;5050815;28;20468;-78
2022/05/30 13:18:23;;;;;;;14.43;9.68;;;;;;;;;;5051648;28;20162;-76